Time;durP1;ratioP1;P1;durP2;ratioP2;P2;SDS_P1;SDS_P2;PMS_P1;PMS_P2;Temp;Humidity;BMP_temperature;BMP_pressure;BME280_temperature;BME280_humidity;BME280_pressure;Samples;Min_cycle;Max_cycle;Signal;HPM_P1;HPM_P2
2023/12/24 04:00:42;;;;;;;0.40;0.30;;;23.40;33.60;;;;;;6135680;22;45763;-87
2023/12/24 04:03:08;;;;;;;0.30;0.20;;;23.40;33.70;;;;;;4978650;28;45289;-83
2023/12/24 04:05:34;;;;;;;0.30;0.20;;;23.40;33.70;;;;;;4979475;28;45272;-85
2023/12/24 04:08:00;;;;;;;0.40;0.20;;;23.40;33.70;;;;;;4966365;28;45203;-81
2023/12/24 04:10:27;;;;;;;0.30;0.20;;;23.30;33.70;;;;;;4978138;28;45294;-83
2023/12/24 04:12:52;;;;;;;0.30;0.20;;;23.30;33.80;;;;;;4964057;28;45092;-82
2023/12/24 04:15:19;;;;;;;0.55;0.20;;;23.40;33.80;;;;;;4983821;28;45366;-84
2023/12/24 04:17:45;;;;;;;0.43;0.20;;;23.30;33.70;;;;;;4987657;28;45045;-87
2023/12/24 04:20:11;;;;;;;0.20;0.20;;;23.30;33.80;;;;;;4977458;28;46899;-87
2023/12/24 04:22:41;;;;;;;0.87;0.30;;;23.30;33.80;;;;;;4981079;28;45537;-83
2023/12/24 04:25:07;;;;;;;0.30;0.20;;;23.30;33.80;;;;;;5002007;28;45065;-87
2023/12/24 04:27:32;;;;;;;0.55;0.20;;;23.30;34.40;;;;;;4981578;28;45366;-83
2023/12/24 04:29:58;;;;;;;0.28;0.10;;;23.30;33.80;;;;;;4986363;28;46245;-82
2023/12/24 04:32:24;;;;;;;0.83;0.30;;;23.30;33.80;;;;;;4980592;28;45339;-85
2023/12/24 04:34:50;;;;;;;0.70;0.40;;;23.30;33.90;;;;;;4984163;28;46074;-84
2023/12/24 04:37:15;;;;;;;0.10;0.10;;;23.30;33.90;;;;;;4985245;28;45021;-87
2023/12/24 04:39:42;;;;;;;0.43;0.30;;;23.20;33.90;;;;;;4988117;28;47254;-83
2023/12/24 04:42:07;;;;;;;0.60;0.25;;;23.30;33.90;;;;;;4985228;28;45792;-88
2023/12/24 04:44:36;;;;;;;0.50;0.20;;;23.30;33.90;;;;;;4991283;28;45739;-87
2023/12/24 04:47:02;;;;;;;0.52;0.20;;;23.30;33.90;;;;;;4986125;28;45080;-84
2023/12/24 04:49:28;;;;;;;0.20;0.20;;;23.20;33.80;;;;;;5024488;28;45647;-85
2023/12/24 04:51:57;;;;;;;0.40;0.20;;;23.20;33.80;;;;;;4997632;28;45653;-85
2023/12/24 04:54:23;;;;;;;0.20;0.10;;;23.20;33.90;;;;;;4970960;28;45184;-80
2023/12/24 04:56:50;;;;;;;0.30;0.20;;;23.20;33.80;;;;;;4971673;28;45234;-82
2023/12/24 04:59:15;;;;;;;0.60;0.20;;;23.20;33.80;;;;;;5004099;28;45459;-85
2023/12/24 05:01:42;;;;;;;0.40;0.10;;;23.30;33.80;;;;;;4999788;28;45383;-85
2023/12/24 05:04:08;;;;;;;0.30;0.10;;;23.20;33.80;;;;;;5007516;28;45183;-87
2023/12/24 05:06:34;;;;;;;0.20;0.10;;;23.20;33.80;;;;;;5004299;28;44759;-86
2023/12/24 05:09:00;;;;;;;0.13;0.10;;;23.20;33.90;;;;;;4991167;28;47381;-81
2023/12/24 05:11:26;;;;;;;0.20;0.10;;;23.10;33.90;;;;;;5017797;28;45393;-82
2023/12/24 05:13:52;;;;;;;0.35;0.20;;;23.20;33.90;;;;;;4992396;28;45280;-87
2023/12/24 05:16:18;;;;;;;0.17;0.10;;;23.20;33.90;;;;;;5003213;28;45471;-84
2023/12/24 05:18:45;;;;;;;1.30;0.10;;;23.20;33.90;;;;;;5020916;28;46222;-84
2023/12/24 05:21:11;;;;;;;0.65;0.30;;;23.20;33.90;;;;;;5004047;28;45656;-84
2023/12/24 05:23:36;;;;;;;0.20;0.20;;;23.20;33.90;;;;;;4988323;28;45370;-81
2023/12/24 05:26:02;;;;;;;0.20;0.20;;;23.20;33.90;;;;;;4998430;28;45104;-84
2023/12/24 05:28:28;;;;;;;0.10;0.10;;;23.20;33.90;;;;;;4978114;28;47090;-80
2023/12/24 05:30:55;;;;;;;0.60;0.10;;;23.20;33.90;;;;;;4983597;28;44895;-83
2023/12/24 05:33:20;;;;;;;0.30;0.10;;;23.20;33.90;;;;;;4990446;28;45599;-82
2023/12/24 05:35:46;;;;;;;0.20;0.10;;;23.10;33.80;;;;;;5013943;28;44827;-86
2023/12/24 05:38:12;;;;;;;0.20;0.10;;;23.10;33.80;;;;;;4994555;28;46350;-86
2023/12/24 05:40:37;;;;;;;0.13;0.10;;;23.20;33.80;;;;;;4989113;28;45634;-84
2023/12/24 05:43:04;;;;;;;0.15;0.10;;;23.20;33.80;;;;;;4986355;28;45239;-84
2023/12/24 05:45:30;;;;;;;0.10;0.10;;;23.10;33.80;;;;;;4982226;28;45845;-83
2023/12/24 05:47:55;;;;;;;0.10;0.10;;;23.10;33.80;;;;;;5007522;28;45450;-87
2023/12/24 05:50:22;;;;;;;0.50;0.20;;;23.10;33.80;;;;;;5002402;28;45421;-83
2023/12/24 05:52:48;;;;;;;0.35;0.20;;;23.10;33.80;;;;;;4993198;28;44741;-86
2023/12/24 05:55:14;;;;;;;0.20;0.20;;;23.10;33.80;;;;;;4991777;28;45379;-85
2023/12/24 05:57:39;;;;;;;0.10;0.10;;;23.10;33.80;;;;;;4968146;28;47454;-85
2023/12/24 06:00:10;;;;;;;0.10;0.10;;;23.10;33.90;;;;;;5006187;28;45522;-93
2023/12/24 06:02:36;;;;;;;0.30;0.20;;;23.10;33.90;;;;;;4999038;28;45403;-85
2023/12/24 06:05:06;;;;;;;0.40;0.15;;;23.10;33.90;;;;;;5004246;28;45253;-84
2023/12/24 06:07:32;;;;;;;0.40;0.10;;;23.10;34.00;;;;;;5020763;28;46508;-83
2023/12/24 06:09:58;;;;;;;0.20;0.10;;;23.10;34.00;;;;;;4992111;28;44948;-85
2023/12/24 06:12:24;;;;;;;0.80;0.20;;;23.10;34.00;;;;;;5015912;28;45144;-93
2023/12/24 06:14:49;;;;;;;0.10;0.10;;;23.00;33.90;;;;;;4991963;28;45162;-85
2023/12/24 06:17:16;;;;;;;0.27;0.10;;;23.10;33.90;;;;;;4988121;28;46039;-85
2023/12/24 06:19:41;;;;;;;0.43;0.20;;;23.10;34.00;;;;;;5014041;28;45258;-85
2023/12/24 06:22:10;;;;;;;0.10;0.10;;;23.10;34.00;;;;;;4983483;28;58710;-83
2023/12/24 06:24:35;;;;;;;0.22;0.10;;;23.10;34.00;;;;;;4967908;28;45077;-86
2023/12/24 06:27:01;;;;;;;0.25;0.15;;;23.10;34.00;;;;;;4964428;28;47186;-82
2023/12/24 06:29:26;;;;;;;0.45;0.10;;;23.00;34.00;;;;;;4990947;28;45183;-84
2023/12/24 06:31:55;;;;;;;0.20;0.20;;;23.00;34.00;;;;;;5014680;28;45361;-87
2023/12/24 06:34:21;;;;;;;0.10;0.10;;;23.00;34.10;;;;;;5007697;28;45119;-84
2023/12/24 06:36:47;;;;;;;0.30;0.20;;;23.00;34.10;;;;;;5017050;28;46207;-85
2023/12/24 06:39:13;;;;;;;0.40;0.10;;;23.00;34.10;;;;;;5006436;28;45348;-87
2023/12/24 06:41:39;;;;;;;0.17;0.10;;;23.00;34.10;;;;;;5000342;28;45182;-83
2023/12/24 06:44:09;;;;;;;0.20;0.10;;;23.00;34.10;;;;;;5000275;28;45229;-84
2023/12/24 06:46:35;;;;;;;0.30;0.20;;;23.00;34.10;;;;;;4997635;28;46440;-86
2023/12/24 06:49:01;;;;;;;0.13;0.10;;;23.00;34.20;;;;;;4984899;28;45234;-83
2023/12/24 06:51:27;;;;;;;0.20;0.17;;;23.00;34.20;;;;;;4989486;28;45254;-82
2023/12/24 06:53:53;;;;;;;0.30;0.10;;;23.00;34.80;;;;;;4987808;28;45514;-85
2023/12/24 06:56:18;;;;;;;0.20;0.10;;;23.00;34.20;;;;;;5016463;28;45294;-83
2023/12/24 06:58:44;;;;;;;0.30;0.20;;;23.00;34.20;;;;;;5006595;28;44725;-86
2023/12/24 07:01:10;;;;;;;0.20;0.10;;;23.00;34.20;;;;;;4999613;28;45640;-84
2023/12/24 07:03:36;;;;;;;0.70;0.20;;;23.00;34.20;;;;;;5002207;28;45447;-86
2023/12/24 07:06:03;;;;;;;0.45;0.10;;;23.00;34.30;;;;;;5012594;28;45650;-83
2023/12/24 07:08:31;;;;;;;0.10;0.10;;;23.00;34.20;;;;;;4967245;28;45826;-83
2023/12/24 07:10:57;;;;;;;0.15;0.10;;;23.00;34.30;;;;;;5001420;28;45448;-84
2023/12/24 07:13:23;;;;;;;0.30;0.20;;;23.00;34.30;;;;;;5017811;28;45167;-86
2023/12/24 07:15:49;;;;;;;0.33;0.20;;;23.00;34.30;;;;;;5001258;28;45576;-83
2023/12/24 07:18:17;;;;;;;0.13;0.13;;;23.00;34.30;;;;;;5014177;28;45311;-85
2023/12/24 07:20:43;;;;;;;0.20;0.13;;;22.90;34.30;;;;;;5017370;28;45454;-81
2023/12/24 07:23:09;;;;;;;0.30;0.20;;;23.00;34.40;;;;;;4968057;28;44704;-86
2023/12/24 07:25:35;;;;;;;0.10;0.10;;;22.90;34.30;;;;;;4996494;28;47253;-82
2023/12/24 07:28:01;;;;;;;0.20;0.10;;;22.90;34.30;;;;;;5003144;28;45243;-86
2023/12/24 07:30:27;;;;;;;0.13;0.10;;;22.90;34.40;;;;;;4983410;28;45568;-83
2023/12/24 07:32:53;;;;;;;0.38;0.17;;;22.90;34.30;;;;;;4984253;28;45341;-86
2023/12/24 07:35:19;;;;;;;0.20;0.10;;;23.00;34.40;;;;;;4986792;28;47188;-88
2023/12/24 07:37:47;;;;;;;0.30;0.20;;;22.90;34.30;;;;;;5005486;28;45600;-84
2023/12/24 07:40:15;;;;;;;0.20;0.20;;;23.00;34.40;;;;;;4997024;28;44931;-87
2023/12/24 07:42:41;;;;;;;0.22;0.15;;;22.90;34.30;;;;;;4999586;28;45534;-85
2023/12/24 07:45:12;;;;;;;0.50;0.20;;;23.00;34.40;;;;;;5000937;28;46730;-93
2023/12/24 07:47:37;;;;;;;0.60;0.30;;;22.90;34.40;;;;;;4999100;28;45332;-85
2023/12/24 07:50:09;;;;;;;0.10;0.10;;;22.90;34.30;;;;;;5015197;28;45426;-93
2023/12/24 07:52:35;;;;;;;0.28;0.20;;;22.90;34.40;;;;;;4997871;28;45615;-82
2023/12/24 07:55:01;;;;;;;0.70;0.13;;;22.90;34.40;;;;;;4994368;28;45286;-88
2023/12/24 07:57:27;;;;;;;0.30;0.20;;;22.90;34.40;;;;;;4999860;28;44924;-84
2023/12/24 07:59:53;;;;;;;0.50;0.20;;;22.90;34.40;;;;;;4983112;28;45409;-82
2023/12/24 08:02:19;;;;;;;0.20;0.20;;;22.90;34.40;;;;;;4980664;28;45454;-82
2023/12/24 08:04:45;;;;;;;0.20;0.20;;;22.90;34.40;;;;;;4984414;28;46425;-84
2023/12/24 08:07:11;;;;;;;0.20;0.20;;;22.90;34.40;;;;;;4983487;28;45158;-85
2023/12/24 08:09:37;;;;;;;0.70;0.10;;;22.90;34.40;;;;;;4988824;28;44647;-85
2023/12/24 08:12:02;;;;;;;0.20;0.10;;;22.90;34.40;;;;;;4999254;28;45614;-82
2023/12/24 08:14:28;;;;;;;0.60;0.30;;;22.90;34.50;;;;;;4987813;28;46188;-82
2023/12/24 08:16:54;;;;;;;0.20;0.20;;;22.90;35.00;;;;;;4987174;28;45402;-80
2023/12/24 08:19:20;;;;;;;0.50;0.10;;;22.90;34.40;;;;;;4999269;28;44920;-82
2023/12/24 08:21:46;;;;;;;0.30;0.20;;;22.90;34.50;;;;;;4998049;28;45176;-84
2023/12/24 08:24:12;;;;;;;0.20;0.20;;;22.90;34.50;;;;;;5001565;28;47208;-84
2023/12/24 08:26:38;;;;;;;0.30;0.20;;;22.90;34.50;;;;;;5002456;28;45317;-81
2023/12/24 08:29:04;;;;;;;1.55;0.20;;;22.90;34.50;;;;;;5020994;28;44733;-86
2023/12/24 08:31:30;;;;;;;1.00;0.10;;;22.90;34.50;;;;;;4999633;28;45037;-87
2023/12/24 08:33:56;;;;;;;0.20;0.10;;;22.90;34.50;;;;;;5001811;28;46661;-84
2023/12/24 08:36:22;;;;;;;0.10;0.10;;;22.90;34.50;;;;;;5015833;28;45000;-81
2023/12/24 08:38:49;;;;;;;0.10;0.10;;;22.90;34.50;;;;;;4999360;28;45348;-83
2023/12/24 08:41:15;;;;;;;0.20;0.20;;;22.90;34.50;;;;;;5015907;28;45364;-83
2023/12/24 08:43:40;;;;;;;0.10;0.10;;;22.90;34.50;;;;;;5005002;28;46080;-84
2023/12/24 08:46:07;;;;;;;0.20;0.20;;;22.90;34.60;;;;;;5015209;28;45321;-82
2023/12/24 08:48:32;;;;;;;0.50;0.20;;;22.90;34.50;;;;;;4983270;28;45042;-84
2023/12/24 08:51:01;;;;;;;0.63;0.20;;;22.90;34.60;;;;;;4984851;28;44836;-86
2023/12/24 08:53:27;;;;;;;0.10;0.10;;;22.90;34.60;;;;;;5001666;28;45575;-87
2023/12/24 08:55:53;;;;;;;0.20;0.20;;;22.90;34.60;;;;;;4967856;28;45738;-86
2023/12/24 08:58:19;;;;;;;0.00;0.00;;;22.90;34.60;;;;;;4985513;28;44744;-87
2023/12/24 09:00:45;;;;;;;0.10;0.10;;;22.90;34.60;;;;;;5002292;28;45203;-82
2023/12/24 09:03:11;;;;;;;0.50;0.30;;;22.90;34.70;;;;;;4997595;28;46449;-84
2023/12/24 09:05:37;;;;;;;0.10;0.10;;;22.80;34.60;;;;;;4983578;28;45431;-83
2023/12/24 09:08:03;;;;;;;0.10;0.10;;;22.90;34.70;;;;;;4969608;28;45377;-88
2023/12/24 09:10:28;;;;;;;0.20;0.20;;;22.80;34.70;;;;;;4966742;28;45267;-81
2023/12/24 09:12:54;;;;;;;0.40;0.10;;;22.80;34.70;;;;;;4969828;28;46826;-83
2023/12/24 09:15:20;;;;;;;0.20;0.20;;;22.80;34.80;;;;;;5014897;28;45271;-83
2023/12/24 09:17:46;;;;;;;0.10;0.10;;;22.80;34.80;;;;;;4974151;28;45269;-86
2023/12/24 09:20:12;;;;;;;0.20;0.20;;;22.80;34.80;;;;;;4995715;28;44787;-81
2023/12/24 09:22:37;;;;;;;0.30;0.10;;;22.80;34.80;;;;;;4992691;28;46899;-84
2023/12/24 09:25:12;;;;;;;0.40;0.20;;;22.80;34.80;;;;;;4969437;28;45183;-85
2023/12/24 09:27:38;;;;;;;0.30;0.25;;;22.80;35.40;;;;;;4969436;28;45397;-85
2023/12/24 09:30:09;;;;;;;0.33;0.20;;;22.80;34.80;;;;;;4970234;28;45244;-93
2023/12/24 09:32:36;;;;;;;0.10;0.10;;;22.80;34.80;;;;;;4983540;28;45739;-82
2023/12/24 09:35:09;;;;;;;0.40;0.20;;;22.80;34.80;;;;;;4988346;28;45953;-89
2023/12/24 09:37:38;;;;;;;0.30;0.30;;;22.80;34.80;;;;;;4977776;28;45092;-84
2023/12/24 09:40:07;;;;;;;0.43;0.35;;;22.80;34.80;;;;;;4977088;28;45864;-89
2023/12/24 09:42:34;;;;;;;0.20;0.20;;;22.80;34.90;;;;;;4993098;28;47189;-81
2023/12/24 09:45:00;;;;;;;0.40;0.20;;;22.70;34.80;;;;;;5004963;28;45608;-84
2023/12/24 09:47:26;;;;;;;0.30;0.30;;;22.70;35.50;;;;;;4968133;28;45534;-84
2023/12/24 09:49:58;;;;;;;0.20;0.20;;;22.70;34.90;;;;;;4994480;28;45223;-84
2023/12/24 09:52:24;;;;;;;0.50;0.30;;;22.70;34.90;;;;;;4968694;28;46487;-83
2023/12/24 09:54:50;;;;;;;0.30;0.20;;;22.70;34.90;;;;;;5006695;28;45213;-82
2023/12/24 09:57:16;;;;;;;0.70;0.30;;;22.70;34.90;;;;;;4991259;28;44798;-82
2023/12/24 09:59:41;;;;;;;0.60;0.30;;;22.70;34.90;;;;;;4974699;28;45266;-83
2023/12/24 10:02:07;;;;;;;0.40;0.30;;;22.70;34.90;;;;;;4982997;28;47710;-87
2023/12/24 10:04:35;;;;;;;0.90;0.30;;;22.70;35.00;;;;;;4991331;28;45170;-82
2023/12/24 10:07:00;;;;;;;0.65;0.35;;;22.70;35.00;;;;;;4989736;28;44895;-82
2023/12/24 10:09:47;;;;;;;0.43;0.30;;;22.70;35.00;;;;;;4974370;28;44767;-80
2023/12/24 10:12:14;;;;;;;0.30;0.20;;;22.70;35.00;;;;;;5006647;28;46828;-82
2023/12/24 10:14:41;;;;;;;0.63;0.30;;;22.70;35.10;;;;;;5005480;28;44916;-92
2023/12/24 10:17:08;;;;;;;0.57;0.40;;;22.70;35.10;;;;;;4969208;28;45293;-81
2023/12/24 10:19:34;;;;;;;0.30;0.30;;;22.70;35.10;;;;;;4975134;28;44930;-84
2023/12/24 10:22:04;;;;;;;0.37;0.37;;;22.70;35.10;;;;;;4987622;28;45289;-81
2023/12/24 10:24:31;;;;;;;0.30;0.22;;;22.70;35.10;;;;;;4993566;28;45247;-84
2023/12/24 10:27:06;;;;;;;1.10;0.30;;;22.70;35.10;;;;;;5004676;28;45256;-85
2023/12/24 10:29:34;;;;;;;0.30;0.30;;;22.70;35.10;;;;;;5010309;28;45147;-83
2023/12/24 10:31:59;;;;;;;1.00;0.40;;;22.70;35.20;;;;;;4982389;28;46152;-83
2023/12/24 10:34:25;;;;;;;0.53;0.40;;;22.60;35.10;;;;;;4991276;28;45096;-83
2023/12/24 10:36:51;;;;;;;0.82;0.45;;;22.70;35.20;;;;;;4996064;28;45203;-82
2023/12/24 10:39:18;;;;;;;1.03;0.30;;;22.60;35.10;;;;;;4990677;28;45236;-81
2023/12/24 10:41:43;;;;;;;0.50;0.30;;;22.60;35.20;;;;;;5002960;28;45703;-83
2023/12/24 10:44:09;;;;;;;0.67;0.30;;;22.60;35.20;;;;;;5009848;28;45266;-80
2023/12/24 10:46:36;;;;;;;0.80;0.50;;;22.60;35.20;;;;;;5019029;28;45238;-87
2023/12/24 10:49:14;;;;;;;0.40;0.40;;;22.60;35.20;;;;;;4990691;28;44789;-82
2023/12/24 10:53:05;;;;;;;0.50;0.40;;;22.60;35.30;;;;;;5021079;28;45280;-84
2023/12/24 13:30:13;;;;;;;0.70;0.40;;;22.20;36.50;;;;;;5000387;28;45271;-80
2023/12/24 13:32:39;;;;;;;0.80;0.40;;;22.20;36.50;;;;;;4971376;28;45336;-38
2023/12/24 13:35:05;;;;;;;0.40;0.20;;;22.20;36.60;;;;;;4968391;28;46434;-38
2023/12/24 13:37:30;;;;;;;0.70;0.40;;;22.20;36.60;;;;;;4968662;28;45380;-39
2023/12/24 13:39:56;;;;;;;0.47;0.30;;;22.20;36.60;;;;;;4981513;28;45232;-39
2023/12/24 13:42:22;;;;;;;0.55;0.30;;;22.10;36.60;;;;;;4957920;28;46694;-39
2023/12/24 13:44:47;;;;;;;0.95;0.30;;;22.10;36.60;;;;;;4948279;28;46319;-39
2023/12/24 13:47:15;;;;;;;0.30;0.30;;;22.10;36.60;;;;;;4953551;28;45049;-39
2023/12/24 13:49:40;;;;;;;0.35;0.30;;;22.20;36.70;;;;;;4977361;28;45750;-40
2023/12/24 13:52:06;;;;;;;0.40;0.30;;;22.10;36.70;;;;;;4948562;28;45318;-39
2023/12/24 13:54:32;;;;;;;0.50;0.30;;;22.10;36.70;;;;;;4980353;28;46393;-40
2023/12/24 13:56:57;;;;;;;0.57;0.37;;;22.20;36.70;;;;;;4966664;28;45340;-39
2023/12/24 13:59:23;;;;;;;0.47;0.30;;;22.20;36.80;;;;;;4962143;28;45367;-40
2023/12/24 14:01:48;;;;;;;0.30;0.30;;;22.10;36.70;;;;;;4956452;28;46487;-39
2023/12/24 14:04:14;;;;;;;0.40;0.20;;;22.10;36.70;;;;;;4976262;28;46197;-40
2023/12/24 14:06:39;;;;;;;0.30;0.22;;;22.20;36.70;;;;;;4967521;28;45941;-39
2023/12/24 14:09:06;;;;;;;0.65;0.28;;;22.10;36.70;;;;;;4983522;28;44982;-39
2023/12/24 14:11:31;;;;;;;0.30;0.30;;;22.10;36.70;;;;;;4938116;28;45330;-38
2023/12/24 14:13:57;;;;;;;0.73;0.28;;;22.10;36.70;;;;;;4976315;28;44644;-39
2023/12/24 14:16:23;;;;;;;0.30;0.30;;;22.20;36.60;;;;;;4944042;28;46574;-40
2023/12/24 14:18:53;;;;;;;0.30;0.30;;;22.10;36.70;;;;;;4953343;28;45638;-40
2023/12/24 14:21:19;;;;;;;0.20;0.20;;;22.10;36.70;;;;;;4965810;28;45280;-39
2023/12/24 14:23:44;;;;;;;0.40;0.28;;;22.20;36.70;;;;;;4983881;28;45343;-40
2023/12/24 14:26:10;;;;;;;0.65;0.30;;;22.10;36.70;;;;;;4961777;28;45913;-39
2023/12/24 14:28:35;;;;;;;0.50;0.40;;;22.20;36.80;;;;;;4976399;28;45177;-40
2023/12/24 14:31:01;;;;;;;0.65;0.43;;;22.20;36.90;;;;;;4961798;28;44944;-39
2023/12/24 14:33:26;;;;;;;1.10;0.50;;;22.20;36.90;;;;;;4974844;28;45260;-40
2023/12/24 14:35:52;;;;;;;0.40;0.40;;;22.10;37.00;;;;;;4972460;28;46005;-40
2023/12/24 14:38:18;;;;;;;0.40;0.40;;;22.20;37.00;;;;;;4958068;28;50116;-39
2023/12/24 14:40:43;;;;;;;0.95;0.50;;;22.20;37.00;;;;;;4967852;28;46595;-40
2023/12/24 14:43:09;;;;;;;0.63;0.45;;;22.10;37.10;;;;;;4984035;28;46064;-38
2023/12/24 14:45:35;;;;;;;0.80;0.50;;;22.10;37.10;;;;;;4958394;28;46023;-39
2023/12/24 14:48:01;;;;;;;1.10;0.53;;;22.20;37.10;;;;;;4978533;28;45397;-40
2023/12/24 14:50:26;;;;;;;0.63;0.63;;;22.20;37.10;;;;;;4964025;28;45457;-39
2023/12/24 14:52:53;;;;;;;0.80;0.50;;;22.20;37.20;;;;;;4978943;28;45406;-39
2023/12/24 14:55:18;;;;;;;0.63;0.60;;;22.20;37.20;;;;;;4933852;28;46007;-39
2023/12/24 14:57:44;;;;;;;0.70;0.60;;;22.20;37.20;;;;;;4969617;28;45800;-40
2023/12/24 15:00:12;;;;;;;0.60;0.60;;;22.20;37.20;;;;;;4970011;28;46610;-40
2023/12/24 15:02:37;;;;;;;0.90;0.80;;;22.20;37.30;;;;;;4962301;28;44705;-40
2023/12/24 15:05:03;;;;;;;0.77;0.70;;;22.20;37.30;;;;;;4981099;28;45221;-39
2023/12/24 15:07:29;;;;;;;0.70;0.60;;;22.30;37.40;;;;;;4954125;28;45189;-39
2023/12/24 15:09:55;;;;;;;0.70;0.60;;;22.30;37.40;;;;;;4965909;28;45603;-39
2023/12/24 15:12:21;;;;;;;0.60;0.50;;;22.30;37.40;;;;;;4946120;28;45494;-39
2023/12/24 15:14:46;;;;;;;0.73;0.70;;;22.30;37.40;;;;;;4962588;28;46019;-39
2023/12/24 15:17:15;;;;;;;0.68;0.68;;;22.30;37.40;;;;;;4952751;28;45323;-38
2023/12/24 15:19:40;;;;;;;0.80;0.70;;;22.40;37.40;;;;;;4947896;28;48317;-40
2023/12/24 15:22:06;;;;;;;0.98;0.68;;;22.40;37.40;;;;;;4955143;28;45781;-41
2023/12/24 15:24:31;;;;;;;0.50;0.50;;;22.40;37.40;;;;;;4966879;28;44874;-39
2023/12/24 15:26:57;;;;;;;1.10;0.60;;;22.40;37.40;;;;;;4957867;28;45265;-39
2023/12/24 15:29:23;;;;;;;0.57;0.50;;;22.50;37.50;;;;;;4951482;28;45234;-41
2023/12/24 15:31:48;;;;;;;0.73;0.60;;;22.50;37.50;;;;;;4936310;28;45577;-39
2023/12/24 15:34:14;;;;;;;0.63;0.63;;;22.50;37.50;;;;;;4908350;28;47350;-39
2023/12/24 15:36:41;;;;;;;0.68;0.52;;;22.50;37.50;;;;;;4929182;28;45031;-39
2023/12/24 15:39:06;;;;;;;1.17;0.50;;;22.60;37.50;;;;;;4975366;28;45338;-41
2023/12/24 15:41:33;;;;;;;0.50;0.50;;;22.60;37.40;;;;;;4958264;28;45356;-39
2023/12/24 15:44:00;;;;;;;0.52;0.50;;;22.60;37.50;;;;;;4965723;28;45282;-40
2023/12/24 15:46:26;;;;;;;0.50;0.40;;;22.70;37.50;;;;;;4951523;28;45205;-39
2023/12/24 15:48:51;;;;;;;0.88;0.60;;;22.70;37.50;;;;;;4971797;28;45888;-40
2023/12/24 15:51:17;;;;;;;0.50;0.30;;;22.70;37.40;;;;;;4944006;28;48983;-38
2023/12/24 15:53:42;;;;;;;0.45;0.40;;;22.70;37.50;;;;;;4965646;28;47609;-39
2023/12/24 15:56:18;;;;;;;0.50;0.40;;;22.70;37.40;;;;;;4943574;28;46194;-41
2023/12/24 15:58:44;;;;;;;1.35;0.40;;;22.80;37.40;;;;;;4970372;28;45182;-40
2023/12/24 16:01:09;;;;;;;0.40;0.40;;;22.80;37.30;;;;;;4957312;28;45342;-39
2023/12/24 16:03:35;;;;;;;0.38;0.38;;;22.90;37.40;;;;;;4965679;28;44845;-39
2023/12/24 16:06:00;;;;;;;0.32;0.32;;;22.80;37.30;;;;;;4944676;28;45200;-39
2023/12/24 16:08:26;;;;;;;0.30;0.30;;;22.90;37.30;;;;;;4945999;28;45466;-40
2023/12/24 16:10:51;;;;;;;0.40;0.30;;;22.90;37.30;;;;;;4945996;28;45539;-40
2023/12/24 16:13:17;;;;;;;0.40;0.30;;;22.90;37.30;;;;;;4967687;28;45462;-41
2023/12/24 16:15:42;;;;;;;0.37;0.30;;;22.90;37.30;;;;;;4957843;28;45999;-40
2023/12/24 16:18:08;;;;;;;0.40;0.40;;;23.00;37.30;;;;;;4977239;28;45579;-40
2023/12/24 16:20:34;;;;;;;0.60;0.43;;;23.00;37.30;;;;;;4949463;28;45338;-40
2023/12/24 16:22:59;;;;;;;0.22;0.20;;;23.10;37.40;;;;;;4974979;28;45145;-40
2023/12/24 16:25:26;;;;;;;0.30;0.28;;;23.10;37.20;;;;;;4973046;28;45118;-39
2023/12/24 16:27:52;;;;;;;0.20;0.20;;;23.10;37.20;;;;;;4969950;28;45236;-40
2023/12/24 16:30:18;;;;;;;0.50;0.30;;;23.10;37.20;;;;;;4960503;28;44669;-40
2023/12/24 16:32:43;;;;;;;0.40;0.30;;;23.20;37.20;;;;;;4971319;28;46235;-41
2023/12/24 16:35:10;;;;;;;0.40;0.30;;;23.20;37.20;;;;;;4978541;28;45280;-40
2023/12/24 16:37:36;;;;;;;0.70;0.40;;;23.20;37.10;;;;;;4968375;28;45368;-40
2023/12/24 16:40:02;;;;;;;0.30;0.30;;;23.30;37.20;;;;;;4978889;28;45077;-41
2023/12/24 16:42:28;;;;;;;0.63;0.45;;;23.30;37.20;;;;;;4968288;28;47128;-40
2023/12/24 16:44:53;;;;;;;1.27;0.53;;;23.30;37.20;;;;;;4985937;28;46303;-40
2023/12/24 16:47:19;;;;;;;1.30;0.50;;;23.30;37.20;;;;;;4957539;28;47070;-41
2023/12/24 16:49:45;;;;;;;0.80;0.70;;;23.30;37.10;;;;;;4975835;28;46704;-41
2023/12/24 16:52:10;;;;;;;0.63;0.60;;;23.40;37.10;;;;;;4977919;28;46723;-40
2023/12/24 16:54:36;;;;;;;0.40;0.40;;;23.40;37.10;;;;;;4969559;28;45470;-40
2023/12/24 16:57:01;;;;;;;0.67;0.57;;;23.40;37.10;;;;;;4967906;28;45875;-43
2023/12/24 16:59:27;;;;;;;0.60;0.60;;;23.50;37.10;;;;;;4980254;28;45310;-41
2023/12/24 17:01:52;;;;;;;0.93;0.70;;;23.50;37.10;;;;;;4961942;28;45672;-41
2023/12/24 17:04:18;;;;;;;2.20;0.70;;;23.50;37.10;;;;;;4979976;28;45761;-41
2023/12/24 17:06:44;;;;;;;0.80;0.60;;;23.50;37.00;;;;;;4972728;28;45363;-40
2023/12/24 17:09:10;;;;;;;0.60;0.60;;;23.60;37.10;;;;;;4949564;28;45757;-40
2023/12/24 17:11:36;;;;;;;0.70;0.50;;;23.60;37.00;;;;;;4934178;28;46247;-40
2023/12/24 17:14:01;;;;;;;1.20;0.50;;;23.60;37.10;;;;;;4971945;28;45512;-41
2023/12/24 17:16:28;;;;;;;0.50;0.50;;;23.60;37.00;;;;;;4953510;28;45902;-40
2023/12/24 17:18:54;;;;;;;0.60;0.50;;;23.70;37.00;;;;;;4963215;28;45825;-42
2023/12/24 17:21:19;;;;;;;0.70;0.50;;;23.70;37.00;;;;;;4948529;28;46277;-40
2023/12/24 17:23:45;;;;;;;0.40;0.40;;;23.70;37.00;;;;;;4964154;28;45285;-41
2023/12/24 17:26:11;;;;;;;0.40;0.40;;;23.70;36.90;;;;;;4955326;28;45536;-41
2023/12/24 17:28:36;;;;;;;0.60;0.43;;;23.80;37.00;;;;;;4963348;28;46217;-40
2023/12/24 17:31:05;;;;;;;0.50;0.50;;;23.80;36.90;;;;;;4948027;28;45409;-41
2023/12/24 17:33:31;;;;;;;0.57;0.40;;;23.90;37.00;;;;;;4964734;28;45636;-40
2023/12/24 17:35:56;;;;;;;0.40;0.40;;;23.90;36.90;;;;;;4964921;28;45266;-39
2023/12/24 17:38:22;;;;;;;0.30;0.30;;;23.90;36.90;;;;;;4968196;28;46316;-41
2023/12/24 17:40:47;;;;;;;0.30;0.30;;;23.90;36.90;;;;;;4939452;28;45724;-41
2023/12/24 17:43:13;;;;;;;1.00;0.70;;;24.00;36.90;;;;;;4965642;28;46064;-39
2023/12/24 17:45:40;;;;;;;0.97;0.87;;;24.00;36.80;;;;;;4927472;28;45346;-41
2023/12/24 17:48:06;;;;;;;1.10;0.90;;;24.00;36.80;;;;;;4971872;28;45326;-41
2023/12/24 17:50:31;;;;;;;1.08;0.90;;;24.00;36.80;;;;;;4953567;28;45602;-40
2023/12/24 17:52:57;;;;;;;1.70;1.20;;;24.10;36.80;;;;;;4969761;28;45000;-40
2023/12/24 17:55:23;;;;;;;1.52;1.20;;;24.10;36.80;;;;;;4945171;28;46338;-41
2023/12/24 17:57:49;;;;;;;2.05;1.45;;;24.10;36.70;;;;;;4958201;28;45395;-41
2023/12/24 18:00:15;;;;;;;2.60;1.90;;;24.10;36.60;;;;;;4952666;28;47032;-41
2023/12/24 18:02:41;;;;;;;2.07;1.70;;;24.20;36.60;;;;;;4935349;28;46564;-41
2023/12/24 18:05:07;;;;;;;1.77;1.50;;;24.20;36.50;;;;;;4962028;28;46231;-40
2023/12/24 18:07:34;;;;;;;3.30;1.90;;;24.20;36.50;;;;;;4967236;28;46330;-39
2023/12/24 18:09:59;;;;;;;1.70;1.50;;;24.30;36.50;;;;;;4948974;28;45851;-43
2023/12/24 18:12:25;;;;;;;1.92;1.50;;;24.30;36.40;;;;;;4939410;28;45550;-40
2023/12/24 18:14:52;;;;;;;1.60;1.50;;;24.30;36.40;;;;;;4964154;28;45484;-40
2023/12/24 18:17:18;;;;;;;1.80;1.40;;;24.30;36.30;;;;;;4948220;28;46330;-41
2023/12/24 18:19:43;;;;;;;1.63;1.43;;;24.40;36.30;;;;;;4967065;28;45450;-41
2023/12/24 18:22:09;;;;;;;1.60;1.37;;;24.40;36.20;;;;;;4950650;28;45730;-42
2023/12/24 18:24:34;;;;;;;1.63;1.30;;;24.40;36.20;;;;;;4955354;28;46581;-41
2023/12/24 18:27:00;;;;;;;1.53;1.40;;;24.40;36.10;;;;;;4956541;28;46327;-41
2023/12/24 18:29:26;;;;;;;1.53;1.10;;;24.40;36.10;;;;;;4967191;28;45209;-41
2023/12/24 18:31:52;;;;;;;1.63;1.20;;;24.50;36.10;;;;;;4947219;28;46449;-41
2023/12/24 18:34:17;;;;;;;1.23;1.00;;;24.50;36.10;;;;;;4964135;28;45313;-41
2023/12/24 18:36:43;;;;;;;1.00;0.90;;;24.50;36.00;;;;;;4953178;28;45229;-41
2023/12/24 18:39:08;;;;;;;1.13;0.90;;;24.50;35.90;;;;;;4960876;28;45805;-40
2023/12/24 18:41:34;;;;;;;1.00;0.80;;;24.50;35.90;;;;;;4957346;28;45346;-41
2023/12/24 18:44:00;;;;;;;0.77;0.77;;;24.60;35.90;;;;;;4960824;28;45352;-40
2023/12/24 18:46:26;;;;;;;1.07;0.80;;;24.60;35.90;;;;;;4949338;28;45442;-40
2023/12/24 18:48:52;;;;;;;1.10;0.80;;;24.60;35.90;;;;;;4964307;28;46055;-40
2023/12/24 18:51:21;;;;;;;0.83;0.80;;;24.60;35.80;;;;;;4959696;28;45393;-40
2023/12/24 18:53:50;;;;;;;0.70;0.60;;;24.60;35.80;;;;;;4960293;28;44955;-42
2023/12/24 18:56:23;;;;;;;0.85;0.80;;;24.60;35.80;;;;;;4954697;28;45847;-40
2023/12/24 18:58:49;;;;;;;0.70;0.68;;;24.70;35.80;;;;;;4965162;28;45353;-41
2023/12/24 19:01:14;;;;;;;0.90;0.70;;;24.60;35.70;;;;;;4950512;28;45371;-40
2023/12/24 19:03:40;;;;;;;0.60;0.60;;;24.70;35.70;;;;;;4953255;28;45929;-41
2023/12/24 19:06:06;;;;;;;0.63;0.60;;;24.70;35.70;;;;;;4957500;28;46565;-41
2023/12/24 19:08:31;;;;;;;0.83;0.60;;;24.70;35.70;;;;;;4963495;28;46285;-40
2023/12/24 19:10:57;;;;;;;0.47;0.47;;;24.70;35.60;;;;;;4950011;28;46268;-40
2023/12/24 19:13:22;;;;;;;0.60;0.40;;;24.70;35.60;;;;;;4967667;28;44864;-40
2023/12/24 19:15:48;;;;;;;0.70;0.50;;;24.70;35.60;;;;;;4947744;28;45255;-41
2023/12/24 19:18:13;;;;;;;0.50;0.50;;;24.70;35.60;;;;;;4966372;28;45242;-40